createdAt,value
2022-09-23T00:01:10.686Z,6.35
2022-09-23T00:03:14.200Z,7.50
2022-09-23T00:05:17.022Z,8.55
2022-09-23T00:07:19.563Z,7.22
2022-09-23T00:09:22.083Z,6.57
2022-09-23T00:11:26.982Z,9.32
2022-09-23T00:13:29.511Z,8.70
2022-09-23T00:15:33.712Z,4.82
2022-09-23T00:17:38.208Z,5.18
2022-09-23T00:19:41.055Z,6.35
2022-09-23T00:21:43.619Z,7.00
2022-09-23T00:23:46.351Z,5.15
2022-09-23T00:25:57.181Z,5.43
2022-09-23T00:27:59.905Z,7.88
2022-09-23T00:30:02.675Z,5.57
2022-09-23T00:32:06.096Z,6.75
2022-09-23T00:34:12.098Z,5.65
2022-09-23T00:36:16.554Z,5.57
2022-09-23T00:38:19.209Z,5.70
2022-09-23T00:40:21.918Z,6.53
2022-09-23T00:42:25.307Z,4.97
2022-09-23T00:44:47.662Z,4.93
2022-09-23T00:46:50.319Z,6.32
2022-09-23T00:48:58.570Z,5.85
2022-09-23T00:51:02.946Z,5.20
2022-09-23T00:53:09.641Z,4.68
2022-09-23T00:55:17.458Z,8.02
2022-09-23T00:57:20.870Z,9.85
2022-09-23T00:59:26.087Z,6.60
2022-09-23T01:01:28.874Z,5.07
2022-09-23T01:03:31.866Z,6.32
2022-09-23T01:05:36.376Z,7.50
2022-09-23T01:07:40.287Z,8.80
2022-09-23T01:09:42.877Z,8.63
2022-09-23T01:12:01.291Z,5.90
2022-09-23T01:14:19.003Z,7.15
2022-09-23T01:16:29.990Z,5.78
2022-09-23T01:18:39.085Z,7.00
2022-09-23T01:20:56.040Z,6.15
2022-09-23T01:23:17.501Z,5.88
2022-09-23T01:25:34.669Z,5.68
2022-09-23T01:27:51.340Z,6.45
2022-09-23T01:30:34.568Z,6.57
2022-09-23T01:32:45.652Z,4.97
2022-09-23T01:34:52.261Z,4.60
2022-09-23T01:37:02.455Z,7.35
2022-09-23T01:39:11.982Z,6.00
2022-09-23T01:41:27.527Z,4.90
2022-09-23T01:43:39.413Z,6.80
2022-09-23T01:47:55.794Z,6.07
2022-09-23T01:50:02.872Z,8.10
2022-09-23T01:52:11.057Z,9.15
2022-09-23T01:54:17.733Z,7.82
2022-09-23T01:56:23.626Z,6.25
2022-09-23T01:58:30.337Z,8.32
2022-09-23T02:00:37.508Z,6.88
2022-09-23T02:02:49.916Z,5.95
2022-09-23T02:04:56.926Z,6.75
2022-09-23T02:07:03.727Z,8.65
2022-09-23T02:09:10.322Z,6.55
2022-09-23T02:11:15.844Z,7.35
2022-09-23T02:13:24.153Z,6.90
2022-09-23T02:15:33.661Z,10.85
2022-09-23T02:17:42.514Z,7.03
2022-09-23T02:19:49.856Z,9.23
2022-09-23T02:21:57.584Z,6.20
2022-09-23T02:24:09.095Z,7.88
2022-09-23T02:26:20.054Z,6.97
2022-09-23T02:28:30.874Z,6.43
2022-09-23T02:30:43.333Z,5.60
2022-09-23T02:32:53.672Z,9.13
2022-09-23T02:35:06.723Z,9.52
2022-09-23T02:37:17.616Z,7.10
2022-09-23T02:39:23.920Z,6.10
2022-09-23T02:41:32.272Z,9.77
2022-09-23T02:43:41.787Z,8.20
2022-09-23T02:45:44.854Z,6.75
2022-09-23T02:47:52.443Z,6.32
2022-09-23T02:49:56.358Z,7.00
2022-09-23T02:52:05.537Z,9.07
2022-09-23T02:54:11.396Z,5.97
2022-09-23T02:56:16.117Z,6.03
2022-09-23T02:58:18.988Z,10.55
2022-09-23T03:00:21.664Z,11.88
2022-09-23T03:02:39.916Z,7.47
2022-09-23T03:04:51.160Z,6.20
2022-09-23T03:07:02.846Z,11.45
2022-09-23T03:09:08.874Z,8.68
2022-09-23T03:11:13.547Z,8.18
2022-09-23T03:13:27.345Z,5.95
2022-09-23T03:15:37.384Z,8.68
2022-09-23T03:17:50.735Z,7.38
2022-09-23T03:20:00.123Z,7.20
2022-09-23T03:22:09.311Z,8.82
2022-09-23T03:24:14.819Z,7.40
2022-09-23T03:26:21.940Z,11.18
2022-09-23T03:28:26.988Z,6.70
2022-09-23T03:30:31.744Z,8.13
2022-09-23T03:32:35.905Z,9.23
2022-09-23T03:34:42.454Z,8.75
2022-09-23T03:36:53.806Z,6.55
2022-09-23T03:39:03.869Z,10.52
2022-09-23T03:41:10.637Z,8.85
2022-09-23T03:43:13.856Z,7.57
2022-09-23T03:45:20.879Z,6.10
2022-09-23T03:47:24.736Z,8.77
2022-09-23T03:49:32.955Z,6.95
2022-09-23T03:51:35.511Z,10.13
2022-09-23T03:53:39.586Z,5.75
2022-09-23T03:55:45.547Z,9.32
2022-09-23T03:57:48.563Z,9.75
2022-09-23T03:59:51.773Z,13.13
2022-09-23T04:01:55.553Z,11.85
2022-09-23T04:03:58.157Z,12.57
2022-09-23T04:06:00.840Z,11.85
2022-09-23T04:08:03.387Z,10.02
2022-09-23T04:10:07.176Z,11.13
2022-09-23T04:12:16.731Z,8.57
2022-09-23T04:14:20.349Z,9.95
2022-09-23T04:16:25.278Z,8.68
2022-09-23T04:18:27.972Z,10.70
2022-09-23T04:20:30.578Z,8.85
2022-09-23T04:22:33.944Z,8.38
2022-09-23T04:24:36.520Z,10.13
2022-09-23T04:26:40.179Z,8.60
2022-09-23T04:28:44.056Z,6.65
2022-09-23T04:30:47.251Z,6.85
2022-09-23T04:32:50.135Z,9.38
2022-09-23T04:34:52.636Z,10.48
2022-09-23T04:36:55.175Z,9.00
2022-09-23T04:38:58.806Z,10.30
2022-09-23T04:41:01.502Z,11.35
2022-09-23T04:43:04.265Z,7.75
2022-09-23T04:45:09.295Z,13.20
2022-09-23T04:47:11.836Z,8.15
2022-09-23T04:49:14.888Z,11.65
2022-09-23T04:51:19.185Z,11.48
2022-09-23T04:53:22.466Z,9.25
2022-09-23T04:55:25.032Z,9.73
2022-09-23T04:57:28.097Z,7.88
2022-09-23T04:59:30.887Z,10.57
2022-09-23T05:01:36.250Z,7.80
2022-09-23T05:03:39.873Z,12.43
2022-09-23T05:05:42.405Z,8.18
2022-09-23T05:07:45.114Z,9.77
2022-09-23T05:09:47.947Z,6.85
2022-09-23T05:11:51.923Z,10.90
2022-09-23T05:13:55.330Z,10.60
2022-09-23T05:16:00.620Z,9.13
2022-09-23T05:18:05.038Z,10.07
2022-09-23T05:20:08.587Z,9.07
2022-09-23T05:22:11.141Z,8.65
2022-09-23T05:24:14.136Z,10.05
2022-09-23T05:26:16.733Z,8.52
2022-09-23T05:28:20.083Z,10.65
2022-09-23T05:30:22.712Z,8.27
2022-09-23T05:32:26.257Z,12.05
2022-09-23T05:34:30.141Z,8.65
2022-09-23T05:36:38.162Z,8.23
2022-09-23T05:38:42.395Z,10.45
2022-09-23T05:40:45.024Z,7.82
2022-09-23T05:42:47.574Z,9.45
2022-09-23T05:44:50.071Z,9.50
2022-09-23T05:46:52.777Z,6.28
2022-09-23T05:49:01.186Z,7.93
2022-09-23T05:51:09.044Z,7.43
2022-09-23T05:53:11.614Z,9.32
2022-09-23T05:55:14.766Z,9.30
2022-09-23T05:57:17.371Z,9.80
2022-09-23T05:59:20.152Z,8.02
2022-09-23T06:01:25.933Z,11.40
2022-09-23T06:03:28.557Z,7.47
2022-09-23T06:05:31.375Z,13.88
2022-09-23T06:07:35.243Z,10.55
2022-09-23T06:09:38.004Z,11.48
2022-09-23T06:11:41.552Z,11.25
2022-09-23T06:13:44.275Z,9.10
2022-09-23T06:15:46.895Z,12.82
2022-09-23T06:17:50.898Z,8.40
2022-09-23T06:19:53.446Z,8.80
2022-09-23T06:21:55.988Z,10.95
2022-09-23T06:24:00.838Z,22.10
2022-09-23T06:26:04.390Z,20.55
2022-09-23T06:28:12.413Z,49.72
2022-09-23T06:30:17.050Z,7.90
2022-09-23T06:32:20.578Z,8.82
2022-09-23T06:34:23.102Z,14.60
2022-09-23T06:36:41.489Z,17.65
2022-09-23T06:38:49.174Z,10.25
2022-09-23T06:40:54.516Z,13.05
2022-09-23T06:43:00.732Z,12.15
2022-09-23T06:45:03.295Z,12.18
2022-09-23T06:47:05.995Z,7.97
2022-09-23T06:49:08.589Z,20.38
2022-09-23T06:51:18.881Z,117.10
2022-09-23T06:53:23.661Z,9.52
2022-09-23T06:55:27.967Z,114.80
2022-09-23T06:57:32.791Z,85.72
2022-09-23T06:59:35.621Z,140.13
2022-09-23T07:01:38.449Z,335.45
2022-09-23T07:03:41.219Z,550.08
2022-09-23T07:05:43.762Z,70.00
2022-09-23T07:07:46.338Z,191.00
2022-09-23T07:09:48.865Z,242.00
2022-09-23T07:11:51.456Z,349.45
2022-09-23T07:13:55.325Z,157.55
2022-09-23T07:16:00.712Z,19.73
2022-09-23T07:18:03.277Z,39.17
2022-09-23T07:20:06.456Z,10.93
2022-09-23T07:22:09.011Z,17.30
2022-09-23T07:24:11.581Z,11.00
2022-09-23T07:26:15.173Z,29.05
2022-09-23T07:28:17.826Z,12.43
2022-09-23T07:30:25.429Z,10.10
2022-09-23T07:32:32.182Z,14.07
2022-09-23T07:34:39.269Z,26.55
2022-09-23T07:36:41.955Z,17.95
2022-09-23T07:38:45.800Z,24.95
2022-09-23T07:40:49.213Z,15.43
2022-09-23T07:42:51.875Z,15.43
2022-09-23T07:44:55.386Z,53.72
2022-09-23T07:46:59.455Z,12.88
2022-09-23T07:49:04.405Z,16.27
2022-09-23T07:51:08.700Z,9.90
2022-09-23T07:53:11.244Z,10.73
2022-09-23T07:55:18.809Z,9.00
2022-09-23T07:57:24.003Z,7.30
2022-09-23T07:59:27.235Z,9.88
2022-09-23T08:01:32.593Z,11.10
2022-09-23T08:03:36.551Z,9.73
2022-09-23T08:05:39.095Z,28.17
2022-09-23T08:07:41.636Z,11.38
2022-09-23T08:09:45.320Z,13.50
2022-09-23T08:11:48.164Z,11.80
2022-09-23T08:13:50.742Z,9.73
2022-09-23T08:15:55.537Z,15.55
2022-09-23T08:17:59.802Z,10.07
2022-09-23T08:20:03.896Z,11.13
2022-09-23T08:22:06.730Z,8.48
2022-09-23T08:24:10.307Z,10.15
2022-09-23T08:26:20.263Z,11.95
2022-09-23T08:28:24.746Z,12.13
2022-09-23T08:30:27.273Z,8.32
2022-09-23T08:32:30.046Z,9.18
2022-09-23T08:34:32.552Z,8.95
2022-09-23T08:36:37.237Z,9.35
2022-09-23T08:38:39.812Z,11.75
2022-09-23T08:40:47.300Z,7.82
2022-09-23T08:42:50.322Z,10.77
2022-09-23T08:44:57.527Z,9.63
2022-09-23T08:47:11.768Z,12.02
2022-09-23T08:49:22.661Z,12.00
2022-09-23T08:51:37.117Z,14.13
2022-09-23T08:53:42.247Z,12.77
2022-09-23T08:55:49.479Z,14.00
2022-09-23T09:00:35.692Z,14.70
2022-09-23T09:02:38.282Z,12.32
2022-09-23T09:04:44.615Z,11.82
2022-09-23T09:06:54.049Z,9.73
2022-09-23T09:09:01.997Z,13.25
2022-09-23T09:11:06.048Z,13.68
2022-09-23T09:13:24.574Z,9.57
2022-09-23T09:15:29.442Z,11.27
2022-09-23T09:17:38.315Z,13.65
2022-09-23T09:19:53.569Z,11.30
2022-09-23T09:21:56.208Z,11.90
2022-09-23T09:24:00.688Z,12.07
2022-09-23T09:26:05.199Z,13.30
2022-09-23T09:28:16.292Z,11.23
2022-09-23T09:30:20.731Z,14.90
2022-09-23T09:32:37.808Z,13.27
2022-09-23T09:34:45.927Z,13.55
2022-09-23T09:36:55.320Z,13.05
2022-09-23T09:38:59.656Z,9.95
2022-09-23T09:41:14.963Z,10.50
2022-09-23T09:43:23.611Z,16.98
2022-09-23T09:45:38.675Z,7.50
2022-09-23T09:47:51.796Z,16.40
2022-09-23T09:50:00.712Z,12.93
2022-09-23T09:52:16.016Z,9.90
2022-09-23T09:54:24.638Z,10.13
2022-09-23T09:56:34.018Z,14.57
2022-09-23T09:58:45.930Z,12.98
2022-09-23T10:02:53.892Z,8.40
2022-09-23T10:04:59.743Z,18.25
2022-09-23T10:07:08.025Z,13.40
2022-09-23T10:09:14.638Z,11.38
2022-09-23T10:11:19.057Z,12.80
2022-09-23T10:13:25.030Z,10.52
2022-09-23T10:15:31.231Z,16.08
2022-09-23T10:17:35.371Z,18.52
2022-09-23T10:19:44.754Z,13.45
2022-09-23T10:21:53.006Z,13.23
2022-09-23T10:24:00.822Z,8.45
2022-09-23T10:26:08.035Z,7.80
2022-09-23T10:28:45.426Z,11.52
2022-09-23T10:31:07.033Z,11.10
2022-09-23T10:33:27.826Z,17.55
2022-09-23T10:35:34.307Z,11.32
2022-09-23T10:37:39.642Z,8.18
2022-09-23T10:40:00.171Z,8.85
2022-09-23T10:42:23.789Z,11.65
2022-09-23T10:44:57.073Z,8.77
2022-09-23T10:47:06.262Z,10.88
2022-09-23T10:49:45.873Z,9.55
2022-09-23T10:52:01.816Z,6.20
2022-09-23T10:54:14.152Z,9.60
2022-09-23T10:56:31.185Z,13.15
2022-09-23T10:59:04.196Z,13.07
2022-09-23T11:01:23.784Z,9.15
2022-09-23T11:03:48.859Z,8.10
2022-09-23T11:06:04.720Z,7.82
2022-09-23T11:08:27.456Z,9.73
2022-09-23T11:10:52.040Z,15.75
2022-09-23T11:13:07.747Z,10.73
2022-09-23T11:15:23.183Z,8.77
2022-09-23T11:17:45.849Z,8.45
2022-09-23T11:20:06.511Z,12.35
2022-09-23T11:22:24.266Z,9.68
2022-09-23T11:25:02.295Z,9.80
2022-09-23T11:27:13.012Z,8.88
2022-09-23T11:29:42.402Z,10.07
2022-09-23T11:31:57.377Z,12.30
2022-09-23T11:34:20.252Z,10.02
2022-09-23T11:36:31.806Z,10.32
2022-09-23T11:38:38.329Z,11.10
2022-09-23T11:40:46.217Z,9.57
2022-09-23T11:42:58.059Z,11.52
2022-09-23T11:45:07.734Z,8.70
2022-09-23T11:47:15.170Z,8.88
2022-09-23T11:49:27.648Z,6.78
2022-09-23T11:51:33.851Z,5.95
2022-09-23T11:53:44.059Z,13.85
2022-09-23T11:55:57.767Z,5.38
2022-09-23T11:58:14.873Z,6.95
2022-09-23T12:00:24.208Z,10.88
2022-09-23T12:02:32.386Z,12.25
2022-09-23T12:04:52.003Z,6.88
2022-09-23T12:07:01.937Z,11.82
2022-09-23T12:09:14.599Z,11.50
2022-09-23T12:11:27.173Z,9.23
2022-09-23T12:13:40.592Z,7.10
2022-09-23T12:15:57.687Z,7.75
2022-09-23T12:18:23.392Z,7.00
2022-09-23T12:20:50.418Z,7.63
2022-09-23T12:23:10.725Z,9.68
2022-09-23T12:25:35.566Z,11.65
2022-09-23T12:27:44.752Z,10.20
2022-09-23T12:29:50.064Z,6.57
2022-09-23T12:31:53.512Z,6.05
2022-09-23T12:33:56.278Z,7.88
2022-09-23T12:36:06.237Z,5.15
2022-09-23T12:38:19.347Z,4.85
2022-09-23T12:40:28.348Z,6.80
2022-09-23T12:42:31.507Z,7.50
2022-09-23T12:44:40.538Z,5.53
2022-09-23T12:46:44.081Z,5.68
2022-09-23T12:49:01.186Z,8.75
2022-09-23T12:51:16.833Z,10.05
2022-09-23T12:53:56.330Z,8.65
2022-09-23T12:56:00.053Z,12.75
2022-09-23T12:58:02.575Z,7.53
2022-09-23T13:00:28.092Z,5.80
2022-09-23T13:02:40.161Z,7.03
2022-09-23T13:05:14.853Z,8.23
2022-09-23T13:07:22.826Z,5.68
2022-09-23T13:09:29.271Z,7.40
2022-09-23T13:11:34.035Z,6.20
2022-09-23T13:13:41.025Z,6.57
2022-09-23T13:15:43.668Z,6.00
2022-09-23T13:17:46.317Z,5.80
2022-09-23T13:20:00.541Z,8.70
2022-09-23T13:22:09.176Z,7.40
2022-09-23T13:24:21.805Z,7.45
2022-09-23T13:26:24.477Z,9.02
2022-09-23T13:28:37.098Z,6.35
2022-09-23T13:30:51.162Z,7.10
2022-09-23T13:33:03.734Z,3.58
2022-09-23T13:35:17.746Z,5.03
2022-09-23T13:37:23.052Z,6.38
2022-09-23T13:39:28.633Z,4.95
2022-09-23T13:41:31.184Z,4.43
2022-09-23T13:43:41.225Z,6.93
2022-09-23T13:45:44.475Z,9.48
2022-09-23T13:47:49.124Z,6.50
2022-09-23T13:49:51.802Z,7.78
2022-09-23T13:51:55.505Z,4.40
2022-09-23T13:54:00.232Z,5.55
2022-09-23T13:56:07.165Z,5.85
2022-09-23T13:58:18.462Z,6.03
2022-09-23T14:00:23.208Z,4.53
2022-09-23T14:02:28.314Z,3.65
2022-09-23T14:04:30.956Z,5.13
2022-09-23T14:06:42.197Z,7.90
2022-09-23T14:08:47.221Z,10.65
2022-09-23T14:10:53.654Z,10.73
2022-09-23T14:12:59.337Z,8.68
2022-09-23T14:15:01.913Z,6.15
2022-09-23T14:17:05.722Z,9.68
2022-09-23T14:19:11.465Z,8.73
2022-09-23T14:21:29.952Z,5.55
2022-09-23T14:23:33.021Z,3.53
2022-09-23T14:25:36.695Z,4.72
2022-09-23T14:27:39.767Z,5.28
2022-09-23T14:29:46.398Z,3.30
2022-09-23T14:31:56.748Z,7.07
2022-09-23T14:33:59.733Z,4.65
2022-09-23T14:36:08.750Z,6.97
2022-09-23T14:38:29.527Z,5.78
2022-09-23T14:40:33.941Z,6.05
2022-09-23T14:42:41.122Z,3.97
2022-09-23T14:44:50.484Z,4.90
2022-09-23T14:46:57.642Z,3.53
2022-09-23T14:49:07.894Z,6.00
2022-09-23T14:51:16.193Z,6.63
2022-09-23T14:53:41.278Z,7.78
2022-09-23T14:55:43.852Z,5.22
2022-09-23T14:57:46.763Z,6.32
2022-09-23T14:59:54.460Z,8.80
2022-09-23T15:01:57.224Z,6.65
2022-09-23T15:04:00.788Z,5.32
2022-09-23T15:06:09.029Z,6.57
2022-09-23T15:08:21.893Z,8.43
2022-09-23T15:10:28.840Z,13.57
2022-09-23T15:12:32.333Z,13.48
2022-09-23T15:14:39.754Z,7.70
2022-09-23T15:16:44.934Z,8.82
2022-09-23T15:18:55.130Z,10.80
2022-09-23T15:21:02.435Z,5.75
2022-09-23T15:23:04.987Z,7.88
2022-09-23T15:25:17.719Z,8.15
2022-09-23T15:27:30.891Z,7.15
2022-09-23T15:29:33.645Z,8.30
2022-09-23T15:31:37.316Z,10.82
2022-09-23T15:33:41.548Z,8.52
2022-09-23T15:35:48.613Z,9.02
2022-09-23T15:37:51.667Z,6.30
2022-09-23T15:39:54.313Z,7.63
2022-09-23T15:41:57.287Z,8.75
2022-09-23T15:44:06.037Z,10.60
2022-09-23T15:46:14.280Z,6.15
2022-09-23T15:48:19.321Z,7.22
2022-09-23T15:50:23.202Z,9.63
2022-09-23T15:52:26.509Z,5.32
2022-09-23T15:54:29.605Z,10.95
2022-09-23T15:56:32.239Z,10.20
2022-09-23T15:58:34.795Z,9.75
2022-09-23T16:00:37.886Z,9.98
2022-09-23T16:02:41.080Z,11.57
2022-09-23T16:04:47.159Z,12.45
2022-09-23T16:06:51.171Z,10.60
2022-09-23T16:08:54.171Z,21.13
2022-09-23T16:10:57.574Z,10.05
2022-09-23T16:13:02.256Z,13.70
2022-09-23T16:15:05.355Z,9.60
2022-09-23T16:17:10.450Z,12.13
2022-09-23T16:19:13.198Z,6.40
2022-09-23T16:21:18.919Z,8.38
2022-09-23T16:23:35.401Z,10.15
2022-09-23T16:25:38.407Z,8.98
2022-09-23T16:27:41.193Z,10.02
2022-09-23T16:29:43.709Z,7.95
2022-09-23T16:31:46.314Z,8.15
2022-09-23T16:33:51.249Z,7.88
2022-09-23T16:35:53.926Z,9.50
2022-09-23T16:37:57.106Z,8.27
2022-09-23T16:40:02.075Z,24.08
2022-09-23T16:42:04.891Z,63.30
2022-09-23T16:44:10.552Z,39.50
2022-09-23T16:46:14.885Z,37.72
2022-09-23T16:48:19.580Z,14.38
2022-09-23T16:50:23.714Z,67.00
2022-09-23T16:52:26.371Z,29.77
2022-09-23T16:54:28.987Z,13.15
2022-09-23T16:56:32.899Z,9.23
2022-09-23T16:58:35.444Z,16.17
2022-09-23T17:00:55.910Z,16.48
2022-09-23T17:03:16.261Z,14.85
2022-09-23T17:05:19.331Z,14.32
2022-09-23T17:07:22.082Z,17.25
2022-09-23T17:09:26.434Z,9.77
2022-09-23T17:11:33.452Z,7.68
2022-09-23T17:13:40.432Z,14.07
2022-09-23T17:15:44.013Z,7.88
2022-09-23T17:17:46.570Z,12.43
2022-09-23T17:19:49.126Z,12.82
2022-09-23T17:21:51.653Z,10.88
2022-09-23T17:23:57.716Z,9.40
2022-09-23T17:26:00.617Z,8.88
2022-09-23T17:28:03.250Z,9.52
2022-09-23T17:30:08.599Z,10.30
2022-09-23T17:32:11.131Z,8.13
2022-09-23T17:34:13.677Z,12.55
2022-09-23T17:36:16.795Z,12.82
2022-09-23T17:38:19.449Z,18.77
2022-09-23T17:40:22.057Z,13.70
2022-09-23T17:42:24.688Z,11.85
2022-09-23T17:44:27.427Z,12.85
2022-09-23T17:46:32.087Z,11.93
2022-09-23T17:48:37.069Z,10.48
2022-09-23T17:50:39.625Z,8.95
2022-09-23T17:52:42.163Z,9.95
2022-09-23T17:54:46.960Z,12.45
2022-09-23T17:56:49.486Z,15.00
2022-09-23T17:58:53.337Z,23.17
2022-09-23T18:00:56.850Z,13.35
2022-09-23T18:03:00.828Z,13.63
2022-09-23T18:05:03.374Z,19.55
2022-09-23T18:07:05.915Z,12.02
2022-09-23T18:09:09.273Z,21.77
2022-09-23T18:11:17.011Z,16.10
2022-09-23T18:13:19.560Z,18.25
2022-09-23T18:15:22.094Z,18.70
2022-09-23T18:17:24.606Z,27.85
2022-09-23T18:19:28.500Z,21.30
2022-09-23T18:21:32.988Z,24.50
2022-09-23T18:23:37.129Z,16.23
2022-09-23T18:25:40.223Z,13.73
2022-09-23T18:27:42.827Z,14.30
2022-09-23T18:29:45.377Z,24.33
2022-09-23T18:31:50.959Z,27.55
2022-09-23T18:33:55.083Z,30.58
2022-09-23T18:36:01.487Z,24.77
2022-09-23T18:38:04.006Z,24.67
2022-09-23T18:40:12.540Z,20.95
2022-09-23T18:42:16.996Z,22.75
2022-09-23T18:44:19.974Z,21.60
2022-09-23T18:46:24.109Z,21.05
2022-09-23T18:48:44.691Z,19.40
2022-09-23T18:50:48.805Z,17.33
2022-09-23T18:52:53.115Z,13.70
2022-09-23T18:54:55.640Z,13.75
2022-09-23T18:56:59.165Z,12.25
2022-09-23T18:59:03.995Z,29.35
2022-09-23T19:01:08.936Z,28.80
2022-09-23T19:03:11.601Z,26.55
2022-09-23T19:05:14.696Z,27.25
2022-09-23T19:07:17.200Z,21.77
2022-09-23T19:09:21.241Z,24.67
2022-09-23T19:11:24.949Z,29.83
2022-09-23T19:13:27.530Z,21.08
2022-09-23T19:15:30.151Z,24.15
2022-09-23T19:17:34.009Z,20.35
2022-09-23T19:19:36.741Z,22.25
2022-09-23T19:21:39.287Z,12.95
2022-09-23T19:23:47.477Z,18.23
2022-09-23T19:25:51.477Z,17.15
2022-09-23T19:27:53.998Z,14.65
2022-09-23T19:29:57.724Z,16.08
2022-09-23T19:32:00.325Z,17.95
2022-09-23T19:34:06.010Z,14.73
2022-09-23T19:36:09.387Z,16.90
2022-09-23T19:38:11.907Z,19.25
2022-09-23T19:40:14.941Z,16.95
2022-09-23T19:42:18.820Z,19.20
2022-09-23T19:44:21.388Z,17.02
2022-09-23T19:46:24.141Z,18.80
2022-09-23T19:48:26.771Z,15.80
2022-09-23T19:50:34.493Z,18.42
2022-09-23T19:52:37.818Z,17.75
2022-09-23T19:54:40.365Z,20.92
2022-09-23T19:56:42.917Z,17.70
2022-09-23T19:58:48.466Z,13.18
2022-09-23T20:00:50.995Z,17.02
2022-09-23T20:02:53.589Z,14.20
2022-09-23T20:04:56.145Z,17.95
2022-09-23T20:06:58.731Z,20.27
2022-09-23T20:09:01.751Z,17.25
2022-09-23T20:11:10.231Z,17.00
2022-09-23T20:13:14.560Z,16.73
2022-09-23T20:15:18.776Z,21.65
2022-09-23T20:17:21.328Z,16.80
2022-09-23T20:19:24.032Z,19.08
2022-09-23T20:21:28.125Z,15.55
2022-09-23T20:23:30.776Z,17.05
2022-09-23T20:25:54.090Z,20.10
2022-09-23T20:27:55.664Z,14.60
2022-09-23T20:29:58.945Z,17.58
2022-09-23T20:32:03.748Z,18.55
2022-09-23T20:34:07.035Z,13.88
2022-09-23T20:36:10.293Z,16.25
2022-09-23T20:38:12.936Z,12.35
2022-09-23T20:40:15.761Z,14.70
2022-09-23T20:42:19.966Z,16.02
2022-09-23T20:44:25.091Z,11.55
2022-09-23T20:46:28.447Z,19.48
2022-09-23T20:48:33.804Z,14.70
2022-09-23T20:50:37.165Z,19.25
2022-09-23T20:52:39.671Z,14.65
2022-09-23T20:54:42.882Z,17.70
2022-09-23T20:56:45.443Z,15.38
2022-09-23T20:58:48.648Z,15.45
2022-09-23T21:00:51.287Z,16.83
2022-09-23T21:02:53.940Z,16.38
2022-09-23T21:04:57.853Z,15.95
2022-09-23T21:07:01.001Z,16.70
2022-09-23T21:09:04.281Z,26.48
2022-09-23T21:11:10.409Z,15.73
2022-09-23T21:13:13.153Z,15.48
2022-09-23T21:15:15.916Z,17.60
2022-09-23T21:17:18.521Z,25.40
2022-09-23T21:19:21.302Z,20.58
2022-09-23T21:21:25.468Z,16.25
2022-09-23T21:23:29.801Z,16.55
2022-09-23T21:25:32.634Z,16.05
2022-09-23T21:27:37.106Z,15.13
2022-09-23T21:29:40.103Z,17.30
2022-09-23T21:31:42.709Z,18.23
2022-09-23T21:33:45.297Z,13.68
2022-09-23T21:35:52.451Z,16.23
2022-09-23T21:37:58.381Z,16.13
2022-09-23T21:40:18.853Z,12.73
2022-09-23T21:42:21.443Z,14.82
2022-09-23T21:44:23.981Z,24.38
2022-09-23T21:46:28.216Z,15.93
2022-09-23T21:48:32.666Z,17.05
2022-09-23T21:50:37.196Z,18.05
2022-09-23T21:52:40.073Z,18.52
2022-09-23T21:54:43.963Z,19.27
2022-09-23T21:56:46.855Z,17.05
2022-09-23T21:58:50.185Z,19.67
2022-09-23T22:00:52.810Z,14.50
2022-09-23T22:02:55.492Z,20.48
2022-09-23T22:04:58.069Z,16.25
2022-09-23T22:07:01.266Z,14.90
2022-09-23T22:09:08.401Z,15.30
2022-09-23T22:11:35.264Z,19.48
2022-09-23T22:13:37.807Z,19.08
2022-09-23T22:15:42.569Z,16.88
2022-09-23T22:17:46.519Z,18.02
2022-09-23T22:19:49.250Z,15.18
2022-09-23T22:21:54.895Z,17.73
2022-09-23T22:24:01.041Z,18.20
2022-09-23T22:26:04.812Z,16.42
2022-09-23T22:28:29.375Z,15.77
2022-09-23T22:30:49.353Z,18.15
2022-09-23T22:32:55.193Z,16.90
2022-09-23T22:34:58.159Z,16.55
2022-09-23T22:37:01.190Z,15.98
2022-09-23T22:39:05.014Z,21.58
2022-09-23T22:41:07.599Z,14.60
2022-09-23T22:43:11.943Z,19.60
2022-09-23T22:45:14.687Z,18.23
2022-09-23T22:47:18.592Z,17.67
2022-09-23T22:49:21.178Z,19.90
2022-09-23T22:51:23.890Z,19.25
2022-09-23T22:53:26.605Z,17.38
2022-09-23T22:55:29.169Z,18.35
2022-09-23T22:57:32.180Z,23.38
2022-09-23T22:59:37.229Z,14.25
2022-09-23T23:01:40.492Z,18.17
2022-09-23T23:03:43.137Z,18.70
2022-09-23T23:05:47.090Z,16.45
2022-09-23T23:07:49.815Z,17.02
2022-09-23T23:09:53.229Z,15.85
2022-09-23T23:11:55.780Z,15.40
2022-09-23T23:14:01.283Z,15.95
2022-09-23T23:16:07.100Z,17.52
2022-09-23T23:18:09.797Z,19.40
2022-09-23T23:20:12.400Z,22.15
2022-09-23T23:22:14.914Z,17.38
2022-09-23T23:24:20.569Z,18.58
2022-09-23T23:26:25.252Z,16.73
2022-09-23T23:28:27.806Z,15.07
2022-09-23T23:30:34.792Z,22.85
2022-09-23T23:32:38.744Z,19.45
2022-09-23T23:34:41.252Z,16.60
2022-09-23T23:36:44.535Z,15.88
2022-09-23T23:38:51.536Z,15.93
2022-09-23T23:40:55.486Z,17.20
2022-09-23T23:43:00.061Z,16.70
2022-09-23T23:45:02.629Z,16.85
2022-09-23T23:47:05.427Z,17.35
2022-09-23T23:49:09.356Z,18.35
2022-09-23T23:51:12.604Z,18.20
2022-09-23T23:53:15.181Z,17.58
2022-09-23T23:55:17.875Z,17.90
2022-09-23T23:57:20.408Z,16.73
2022-09-23T23:59:23.001Z,18.60
